createdAt,value
2018-03-20T00:00:43.250Z,60.86
2018-03-20T00:01:43.262Z,60.39
2018-03-20T00:02:43.265Z,60.67
2018-03-20T00:03:43.273Z,60.96
2018-03-20T00:04:43.283Z,61.15
2018-03-20T00:05:43.298Z,60.77
2018-03-20T00:06:43.300Z,60.39
2018-03-20T00:07:43.310Z,60.77
2018-03-20T00:08:43.319Z,60.86
2018-03-20T00:09:43.327Z,60.49
2018-03-20T00:10:43.338Z,59.82
2018-03-20T00:11:43.345Z,59.63
2018-03-20T00:12:43.355Z,59.54
2018-03-20T00:13:43.364Z,59.35
2018-03-20T00:14:43.372Z,60.58
2018-03-20T00:15:43.380Z,60.67
2018-03-20T00:16:43.390Z,60.49
2018-03-20T00:17:43.402Z,60.20
2018-03-20T00:18:43.407Z,59.63
2018-03-20T00:19:43.414Z,59.82
2018-03-20T00:20:43.423Z,60.11
2018-03-20T00:21:43.432Z,60.96
2018-03-20T00:22:43.445Z,60.49
2018-03-20T00:23:43.447Z,59.73
2018-03-20T00:24:43.454Z,59.82
2018-03-20T00:25:43.465Z,60.01
2018-03-20T00:26:43.473Z,59.63
2018-03-20T00:27:43.483Z,60.67
2018-03-20T00:28:43.491Z,60.67
2018-03-20T00:29:43.502Z,60.20
2018-03-20T00:30:43.515Z,59.82
2018-03-20T00:31:43.517Z,60.58
2018-03-20T00:32:43.526Z,60.49
2018-03-20T00:33:43.538Z,60.39
2018-03-20T00:34:43.543Z,59.82
2018-03-20T00:35:43.553Z,60.01
2018-03-20T00:36:43.561Z,59.63
2018-03-20T00:37:43.570Z,60.30
2018-03-20T00:38:43.582Z,60.20
2018-03-20T00:39:43.580Z,59.82
2018-03-20T00:40:43.586Z,59.82
2018-03-20T00:41:43.596Z,60.67
2018-03-20T00:42:43.605Z,61.33
2018-03-20T00:43:43.613Z,61.43
2018-03-20T00:44:43.623Z,61.33
2018-03-20T00:45:43.633Z,61.24
2018-03-20T00:46:43.642Z,61.33
2018-03-20T00:47:43.653Z,61.24
2018-03-20T00:48:43.659Z,61.52
2018-03-20T00:49:43.665Z,61.05
2018-03-20T00:50:43.680Z,61.33
2018-03-20T00:51:43.683Z,60.20
2018-03-20T00:52:43.693Z,60.30
2018-03-20T00:53:43.701Z,59.82
2018-03-20T00:54:43.710Z,60.58
2018-03-20T00:55:43.720Z,60.11
2018-03-20T00:56:43.727Z,59.73
2018-03-20T00:57:43.736Z,60.30
2018-03-20T00:58:43.768Z,59.92
2018-03-20T00:59:43.756Z,59.82
2018-03-20T01:00:43.861Z,60.20
2018-03-20T01:01:43.770Z,59.73
2018-03-20T01:02:43.781Z,60.49
2018-03-20T01:03:43.789Z,61.05
2018-03-20T01:04:43.798Z,61.33
2018-03-20T01:05:43.811Z,61.43
2018-03-20T01:06:43.817Z,61.05
2018-03-20T01:07:43.824Z,61.15
2018-03-20T01:08:43.832Z,61.61
2018-03-20T01:09:43.848Z,61.24
2018-03-20T01:10:43.856Z,61.33
2018-03-20T01:11:43.860Z,61.52
2018-03-20T01:12:43.870Z,61.43
2018-03-20T01:13:43.879Z,61.61
2018-03-20T01:14:43.888Z,61.43
2018-03-20T01:15:43.895Z,60.96
2018-03-20T01:16:43.905Z,61.61
2018-03-20T01:17:43.918Z,61.15
2018-03-20T01:18:43.923Z,61.43
2018-03-20T01:19:43.932Z,61.61
2018-03-20T01:20:43.942Z,61.90
2018-03-20T01:21:43.949Z,62.18
2018-03-20T01:22:43.960Z,61.80
2018-03-20T01:23:43.968Z,61.99
2018-03-20T01:24:43.977Z,63.04
2018-03-20T01:25:43.989Z,62.85
2018-03-20T01:26:43.994Z,63.13
2018-03-20T01:27:44.015Z,62.56
2018-03-20T01:28:44.013Z,62.56
2018-03-20T01:29:44.023Z,62.59
2018-03-20T01:30:44.032Z,63.35
2018-03-20T01:31:44.041Z,62.78
2018-03-20T01:32:44.053Z,63.16
2018-03-20T01:33:44.058Z,63.07
2018-03-20T01:34:44.067Z,63.35
2018-03-20T01:35:44.076Z,62.69
2018-03-20T01:36:44.085Z,62.59
2018-03-20T01:37:44.095Z,62.40
2018-03-20T01:38:44.106Z,62.88
2018-03-20T01:39:44.113Z,62.69
2018-03-20T01:40:44.126Z,61.93
2018-03-20T01:41:44.132Z,62.59
2018-03-20T01:42:44.140Z,62.21
2018-03-20T01:43:44.149Z,61.65
2018-03-20T01:44:44.161Z,60.99
2018-03-20T01:45:44.167Z,61.46
2018-03-20T01:46:44.177Z,61.83
2018-03-20T01:47:44.185Z,62.59
2018-03-20T01:48:44.195Z,63.07
2018-03-20T01:49:44.205Z,63.07
2018-03-20T01:50:44.213Z,63.07
2018-03-20T01:51:44.222Z,63.45
2018-03-20T01:52:44.231Z,63.54
2018-03-20T01:53:44.239Z,64.20
2018-03-20T01:54:44.251Z,64.77
2018-03-20T01:55:44.258Z,64.39
2018-03-20T01:56:44.268Z,64.77
2018-03-20T01:57:44.278Z,65.15
2018-03-20T01:58:44.286Z,66.00
2018-03-20T01:59:44.294Z,66.19
2018-03-20T02:00:44.303Z,66.56
2018-03-20T02:01:44.313Z,66.94
2018-03-20T02:02:44.323Z,66.85
2018-03-20T02:03:44.331Z,67.13
2018-03-20T02:04:44.340Z,66.28
2018-03-20T02:05:44.350Z,65.81
2018-03-20T02:06:44.361Z,66.09
2018-03-20T02:07:44.368Z,66.19
2018-03-20T02:08:44.378Z,66.75
2018-03-20T02:09:44.387Z,66.85
2018-03-20T02:10:44.395Z,67.03
2018-03-20T02:11:44.405Z,66.94
2018-03-20T02:12:44.415Z,66.94
2018-03-20T02:13:44.423Z,66.94
2018-03-20T02:14:44.431Z,66.94
2018-03-20T02:15:44.440Z,66.94
2018-03-20T02:16:44.450Z,67.32
2018-03-20T02:17:44.458Z,67.89
2018-03-20T02:18:44.468Z,68.93
2018-03-20T02:19:44.479Z,69.02
2018-03-20T02:20:44.487Z,69.40
2018-03-20T02:21:44.497Z,69.49
2018-03-20T02:22:44.506Z,69.31
2018-03-20T02:23:44.516Z,69.87
2018-03-20T02:24:44.530Z,70.16
2018-03-20T02:25:44.533Z,70.44
2018-03-20T02:26:44.550Z,70.92
2018-03-20T02:27:44.551Z,71.58
2018-03-20T02:28:44.561Z,71.20
2018-03-20T02:29:44.571Z,72.24
2018-03-20T02:30:44.584Z,72.24
2018-03-20T02:31:44.587Z,72.90
2018-03-20T02:32:44.596Z,73.09
2018-03-20T02:33:44.609Z,73.37
2018-03-20T02:34:44.615Z,73.18
2018-03-20T02:35:44.637Z,73.28
2018-03-20T02:36:44.631Z,73.85
2018-03-20T02:37:44.642Z,74.41
2018-03-20T02:38:44.652Z,74.98
2018-03-20T02:39:44.665Z,75.45
2018-03-20T02:40:44.670Z,75.74
2018-03-20T02:41:44.679Z,75.64
2018-03-20T02:42:44.690Z,75.45
2018-03-20T02:43:44.696Z,75.64
2018-03-20T02:44:44.708Z,75.26
2018-03-20T02:45:44.713Z,75.93
2018-03-20T02:46:44.723Z,76.02
2018-03-20T02:47:44.732Z,75.45
2018-03-20T02:48:44.740Z,76.12
2018-03-20T02:49:44.757Z,77.06
2018-03-20T02:50:44.758Z,78.10
2018-03-20T02:51:44.767Z,79.90
2018-03-20T02:52:44.776Z,80.65
2018-03-20T02:53:44.786Z,81.32
2018-03-20T02:54:44.795Z,81.88
2018-03-20T02:55:44.809Z,82.64
2018-03-20T02:56:44.813Z,82.83
2018-03-20T02:57:44.820Z,83.68
2018-03-20T02:58:44.831Z,83.21
2018-03-20T02:59:44.838Z,83.21
2018-03-20T03:00:44.848Z,83.59
2018-03-20T03:01:44.856Z,85.19
2018-03-20T03:02:44.869Z,85.47
2018-03-20T03:03:44.881Z,86.42
2018-03-20T03:04:44.886Z,87.08
2018-03-20T03:05:44.895Z,87.74
2018-03-20T03:06:44.905Z,89.17
2018-03-20T03:07:44.913Z,89.54
2018-03-20T03:08:44.944Z,90.49
2018-03-20T03:09:44.933Z,90.86
2018-03-20T03:10:44.939Z,91.72
2018-03-20T03:11:44.946Z,92.00
2018-03-20T03:12:44.956Z,92.66
2018-03-20T03:13:44.969Z,93.51
2018-03-20T03:14:44.977Z,93.99
2018-03-20T03:15:44.982Z,94.37
2018-03-20T03:16:44.989Z,95.31
2018-03-20T03:17:45.000Z,96.26
2018-03-20T03:18:45.008Z,96.73
2018-03-20T03:19:45.017Z,97.01
2018-03-20T03:20:45.027Z,97.30
2018-03-20T03:21:45.038Z,97.30
2018-03-20T03:22:45.046Z,98.24
2018-03-20T03:23:45.054Z,97.86
2018-03-20T03:24:45.063Z,98.14
2018-03-20T03:25:45.072Z,98.14
2018-03-20T03:26:45.082Z,98.33
2018-03-20T03:27:45.089Z,98.52
2018-03-20T03:28:45.100Z,98.62
2018-03-20T03:29:45.111Z,98.43
2018-03-20T03:30:45.117Z,98.62
2018-03-20T03:31:45.125Z,98.43
2018-03-20T03:32:45.131Z,98.33
2018-03-20T03:33:45.140Z,98.24
2018-03-20T03:34:45.149Z,98.71
2018-03-20T03:35:45.156Z,99.09
2018-03-20T03:36:45.174Z,99.00
2018-03-20T03:37:45.176Z,98.81
2018-03-20T03:38:45.184Z,98.81
2018-03-20T03:39:45.197Z,99.19
2018-03-20T03:40:45.200Z,99.47
2018-03-20T03:41:45.209Z,99.57
2018-03-20T03:42:45.219Z,99.57
2018-03-20T03:43:45.227Z,99.85
2018-03-20T03:44:45.240Z,99.47
2018-03-20T03:45:45.246Z,99.85
2018-03-20T03:46:45.255Z,99.95
2018-03-20T03:47:45.266Z,99.95
2018-03-20T03:48:45.270Z,99.85
2018-03-20T03:49:45.284Z,99.95
2018-03-20T03:50:45.289Z,99.76
2018-03-20T03:51:45.341Z,99.66
2018-03-20T03:52:45.307Z,99.66
2018-03-20T03:53:45.318Z,99.28
2018-03-20T03:54:45.325Z,99.85
2018-03-20T03:55:45.332Z,99.99
2018-03-20T03:56:45.344Z,99.76
2018-03-20T03:57:45.350Z,99.85
2018-03-20T03:58:45.361Z,99.71
2018-03-20T03:59:45.368Z,99.85
2018-03-20T04:00:45.378Z,99.99
2018-03-20T04:01:45.386Z,99.99
2018-03-20T04:02:45.396Z,99.99
2018-03-20T04:03:45.406Z,99.99
2018-03-20T04:04:45.415Z,99.99
2018-03-20T04:05:45.425Z,99.99
2018-03-20T04:06:45.433Z,99.99
2018-03-20T04:07:45.447Z,99.99
2018-03-20T04:08:45.451Z,99.99
2018-03-20T04:09:45.461Z,99.99
2018-03-20T04:10:45.469Z,99.99
2018-03-20T04:11:45.476Z,99.99
2018-03-20T04:12:45.485Z,99.99
2018-03-20T04:13:45.495Z,99.99
2018-03-20T04:14:45.505Z,99.99
2018-03-20T04:15:45.519Z,99.99
2018-03-20T04:16:45.521Z,99.99
2018-03-20T04:17:45.530Z,99.99
2018-03-20T04:18:45.540Z,99.99
2018-03-20T04:19:45.549Z,99.99
2018-03-20T04:20:45.560Z,99.99
2018-03-20T04:21:45.568Z,99.99
2018-03-20T04:22:45.576Z,99.99
2018-03-20T04:23:45.585Z,99.99
2018-03-20T04:24:45.597Z,99.99
2018-03-20T04:25:45.603Z,99.99
2018-03-20T04:26:45.613Z,99.99
2018-03-20T04:27:45.622Z,99.99
2018-03-20T04:28:45.632Z,99.99
2018-03-20T04:29:45.639Z,99.99
2018-03-20T04:30:45.662Z,99.99
2018-03-20T04:31:45.657Z,99.99
2018-03-20T04:32:45.667Z,99.99
2018-03-20T04:33:45.677Z,99.99
2018-03-20T04:34:45.689Z,99.99
2018-03-20T04:35:45.695Z,99.99
2018-03-20T04:36:45.706Z,99.99
2018-03-20T04:37:45.719Z,99.99
2018-03-20T04:38:45.724Z,99.99
2018-03-20T04:39:45.733Z,99.99
2018-03-20T04:40:45.741Z,99.99
2018-03-20T04:41:45.751Z,99.99
2018-03-20T04:42:45.760Z,99.99
2018-03-20T04:43:45.770Z,99.99
2018-03-20T04:44:45.779Z,99.99
2018-03-20T04:45:45.790Z,99.99
2018-03-20T04:46:45.799Z,99.99
2018-03-20T04:47:45.807Z,99.99
2018-03-20T04:48:45.823Z,99.99
2018-03-20T04:49:45.828Z,99.99
2018-03-20T04:50:45.837Z,99.99
2018-03-20T04:51:45.845Z,99.99
2018-03-20T04:52:45.853Z,99.99
2018-03-20T04:53:45.862Z,99.99
2018-03-20T04:54:45.871Z,99.99
2018-03-20T04:55:45.882Z,99.99
2018-03-20T04:56:45.890Z,99.99
2018-03-20T04:57:45.899Z,99.99
2018-03-20T04:58:45.909Z,99.99
2018-03-20T04:59:45.918Z,99.99
2018-03-20T05:00:45.927Z,99.99
2018-03-20T05:01:45.938Z,99.99
2018-03-20T05:02:45.946Z,99.99
2018-03-20T05:03:45.956Z,99.99
2018-03-20T05:04:45.966Z,99.99
2018-03-20T05:05:45.976Z,99.99
2018-03-20T05:06:45.986Z,99.99
2018-03-20T05:07:45.993Z,99.99
2018-03-20T05:08:46.004Z,99.99
2018-03-20T05:09:46.018Z,99.99
2018-03-20T05:10:46.024Z,99.99
2018-03-20T05:11:46.029Z,99.99
2018-03-20T05:12:46.043Z,99.99
2018-03-20T05:13:46.050Z,99.99
2018-03-20T05:14:46.063Z,99.99
2018-03-20T05:15:46.068Z,99.99
2018-03-20T05:16:46.078Z,99.99
2018-03-20T05:17:46.088Z,99.99
2018-03-20T05:18:46.106Z,99.99
2018-03-20T05:19:46.106Z,99.99
2018-03-20T05:20:46.115Z,99.99
2018-03-20T05:21:46.125Z,99.99
2018-03-20T05:22:46.135Z,99.99
2018-03-20T05:23:46.144Z,99.99
2018-03-20T05:24:46.152Z,99.99
2018-03-20T05:25:46.163Z,99.99
2018-03-20T05:26:46.176Z,99.99
2018-03-20T05:27:46.179Z,99.99
2018-03-20T05:28:46.191Z,99.99
2018-03-20T05:29:46.201Z,99.99
2018-03-20T05:30:46.217Z,99.99
2018-03-20T05:31:46.220Z,99.99
2018-03-20T05:32:46.228Z,99.99
2018-03-20T05:33:46.242Z,99.99
2018-03-20T05:34:46.249Z,99.99
2018-03-20T05:35:46.258Z,99.99
2018-03-20T05:36:46.268Z,99.99
2018-03-20T05:37:46.276Z,99.99
2018-03-20T05:38:46.291Z,99.99
2018-03-20T05:39:46.298Z,99.99
2018-03-20T05:40:46.307Z,99.99
2018-03-20T05:41:46.319Z,99.99
2018-03-20T05:42:46.327Z,99.99
2018-03-20T05:43:46.336Z,99.99
2018-03-20T05:44:46.344Z,99.99
2018-03-20T05:45:46.357Z,99.99
2018-03-20T05:46:46.365Z,99.99
2018-03-20T05:47:46.374Z,99.99
2018-03-20T05:48:46.384Z,99.99
2018-03-20T05:49:46.393Z,99.99
2018-03-20T05:50:46.404Z,99.99
2018-03-20T05:51:46.416Z,99.99
2018-03-20T05:52:46.424Z,99.99
2018-03-20T05:53:46.437Z,99.99
2018-03-20T05:54:46.441Z,99.99
2018-03-20T05:55:46.452Z,99.99
2018-03-20T05:56:46.462Z,99.99
2018-03-20T05:57:46.476Z,99.99
2018-03-20T05:58:46.482Z,99.99
2018-03-20T05:59:46.492Z,99.99
2018-03-20T06:00:46.502Z,99.99
2018-03-20T06:01:46.512Z,99.99
2018-03-20T06:02:46.522Z,99.99
2018-03-20T06:03:46.531Z,99.99
2018-03-20T06:04:46.544Z,99.99
2018-03-20T06:05:46.550Z,99.99
2018-03-20T06:06:46.563Z,99.99
2018-03-20T06:07:46.570Z,99.99
2018-03-20T06:08:46.580Z,99.99
2018-03-20T06:09:46.595Z,99.99
2018-03-20T06:10:46.605Z,99.99
2018-03-20T06:11:46.608Z,99.99
2018-03-20T06:12:46.618Z,99.99
2018-03-20T06:13:46.628Z,99.99
2018-03-20T06:14:46.638Z,99.99
2018-03-20T06:15:46.651Z,99.99
2018-03-20T06:16:46.658Z,99.99
2018-03-20T06:17:46.670Z,99.99
2018-03-20T06:18:46.703Z,99.99
2018-03-20T06:19:46.687Z,99.99
2018-03-20T06:20:46.700Z,99.99
2018-03-20T06:21:46.707Z,99.99
2018-03-20T06:22:46.717Z,99.99
2018-03-20T06:23:46.729Z,99.99
2018-03-20T06:24:46.737Z,99.99
2018-03-20T06:25:46.746Z,99.99
2018-03-20T06:26:46.755Z,99.99
2018-03-20T06:27:46.764Z,99.99
2018-03-20T06:28:46.774Z,99.99
2018-03-20T06:29:46.785Z,99.99
2018-03-20T06:30:46.796Z,99.99
2018-03-20T06:31:46.804Z,99.99
2018-03-20T06:32:46.813Z,99.99
2018-03-20T06:33:46.824Z,99.99
2018-03-20T06:34:46.833Z,99.99
2018-03-20T06:35:46.843Z,99.85
2018-03-20T06:36:46.851Z,99.66
2018-03-20T06:37:46.874Z,99.76
2018-03-20T06:38:46.927Z,99.38
2018-03-20T06:39:46.897Z,99.33
2018-03-20T06:40:46.894Z,99.01
2018-03-20T06:41:46.904Z,98.86
2018-03-20T06:42:46.913Z,98.77
2018-03-20T06:43:46.923Z,99.01
2018-03-20T06:44:46.933Z,98.72
2018-03-20T06:45:46.942Z,98.72
2018-03-20T06:46:46.953Z,98.49
2018-03-20T06:47:46.962Z,98.58
2018-03-20T06:48:46.973Z,98.58
2018-03-20T06:49:46.984Z,98.39
2018-03-20T06:50:46.992Z,98.68
2018-03-20T06:51:47.001Z,98.77
2018-03-20T06:52:47.013Z,98.68
2018-03-20T06:53:47.035Z,98.63
2018-03-20T06:54:47.034Z,98.39
2018-03-20T06:55:47.044Z,98.39
2018-03-20T06:56:47.057Z,98.49
2018-03-20T06:57:47.066Z,98.49
2018-03-20T06:58:47.078Z,98.86
2018-03-20T06:59:47.086Z,98.39
2018-03-20T07:00:47.095Z,97.92
2018-03-20T07:01:47.105Z,97.44
2018-03-20T07:02:47.116Z,97.25
2018-03-20T07:03:47.127Z,96.97
2018-03-20T07:04:47.137Z,96.50
2018-03-20T07:05:47.145Z,96.50
2018-03-20T07:06:47.155Z,96.12
2018-03-20T07:07:47.167Z,96.50
2018-03-20T07:08:47.176Z,96.21
2018-03-20T07:09:47.187Z,96.12
2018-03-20T07:10:47.196Z,96.02
2018-03-20T07:11:47.245Z,96.31
2018-03-20T07:12:47.220Z,95.64
2018-03-20T07:13:47.230Z,95.83
2018-03-20T07:14:47.243Z,95.64
2018-03-20T07:15:47.248Z,95.55
2018-03-20T07:16:47.258Z,95.64
2018-03-20T07:17:47.299Z,95.36
2018-03-20T07:18:47.280Z,95.74
2018-03-20T07:19:47.294Z,95.55
2018-03-20T07:20:47.304Z,95.64
2018-03-20T07:21:47.309Z,95.36
2018-03-20T07:22:47.348Z,95.64
2018-03-20T07:23:47.332Z,95.74
2018-03-20T07:24:47.342Z,95.45
2018-03-20T07:25:47.358Z,95.64
2018-03-20T07:26:47.362Z,95.36
2018-03-20T07:27:47.373Z,95.26
2018-03-20T07:28:47.380Z,95.55
2018-03-20T07:29:47.393Z,95.26
2018-03-20T07:30:47.403Z,94.98
2018-03-20T07:31:47.414Z,94.60
2018-03-20T07:32:47.422Z,93.75
2018-03-20T07:33:47.434Z,94.23
2018-03-20T07:34:47.445Z,94.23
2018-03-20T07:35:47.453Z,93.84
2018-03-20T07:36:47.463Z,93.75
2018-03-20T07:37:47.479Z,93.18
2018-03-20T07:38:47.486Z,92.05
2018-03-20T07:39:47.498Z,91.57
2018-03-20T07:40:47.508Z,91.00
2018-03-20T07:41:47.516Z,90.53
2018-03-20T07:42:47.528Z,90.53
2018-03-20T07:43:47.538Z,89.58
2018-03-20T07:44:47.551Z,88.54
2018-03-20T07:45:47.560Z,88.73
2018-03-20T07:46:47.574Z,89.11
2018-03-20T07:47:47.582Z,88.73
2018-03-20T07:48:47.588Z,89.11
2018-03-20T07:49:47.603Z,88.64
2018-03-20T07:50:47.614Z,89.11
2018-03-20T07:51:47.623Z,89.11
2018-03-20T07:52:47.633Z,89.49
2018-03-20T07:53:47.653Z,89.20
2018-03-20T07:54:47.656Z,88.73
2018-03-20T07:55:47.673Z,88.64
2018-03-20T07:56:47.680Z,88.54
2018-03-20T07:57:47.681Z,88.26
2018-03-20T07:58:47.690Z,88.07
2018-03-20T07:59:47.701Z,87.88
2018-03-20T08:00:47.711Z,87.88
2018-03-20T08:01:47.722Z,87.88
2018-03-20T08:02:47.733Z,87.50
2018-03-20T08:03:47.743Z,86.83
2018-03-20T08:04:47.752Z,86.93
2018-03-20T08:05:47.777Z,86.83
2018-03-20T08:06:47.774Z,86.74
2018-03-20T08:07:47.789Z,86.46
2018-03-20T08:08:47.794Z,86.36
2018-03-20T08:09:47.809Z,85.99
2018-03-20T08:10:47.814Z,86.55
2018-03-20T08:11:47.825Z,86.98
2018-03-20T08:12:47.835Z,86.12
2018-03-20T08:13:47.919Z,86.12
2018-03-20T08:14:47.858Z,86.12
2018-03-20T08:15:47.867Z,86.41
2018-03-20T08:16:47.877Z,86.31
2018-03-20T08:17:47.888Z,86.31
2018-03-20T08:18:47.898Z,86.31
2018-03-20T08:19:47.910Z,85.84
2018-03-20T08:20:47.925Z,85.65
2018-03-20T08:21:47.933Z,85.74
2018-03-20T08:22:47.941Z,85.46
2018-03-20T08:23:47.959Z,85.17
2018-03-20T08:24:47.961Z,85.65
2018-03-20T08:25:47.972Z,84.89
2018-03-20T08:26:48.803Z,85.08
2018-03-20T08:27:47.998Z,84.70
2018-03-20T08:28:48.004Z,84.89
2018-03-20T08:29:48.021Z,85.08
2018-03-20T08:30:48.024Z,85.17
2018-03-20T08:31:48.041Z,84.42
2018-03-20T08:32:48.044Z,84.70
2018-03-20T08:33:48.059Z,83.85
2018-03-20T08:34:48.068Z,82.52
2018-03-20T08:35:48.078Z,82.24
2018-03-20T08:36:48.089Z,82.43
2018-03-20T08:37:48.098Z,82.90
2018-03-20T08:38:48.110Z,83.09
2018-03-20T08:39:48.120Z,82.52
2018-03-20T08:40:48.131Z,81.76
2018-03-20T08:41:48.142Z,81.10
2018-03-20T08:42:48.156Z,80.25
2018-03-20T08:43:48.165Z,80.72
2018-03-20T08:44:48.172Z,80.72
2018-03-20T08:45:48.183Z,80.82
2018-03-20T08:46:48.196Z,81.29
2018-03-20T08:47:48.206Z,81.01
2018-03-20T08:48:48.217Z,81.29
2018-03-20T08:49:48.226Z,81.67
2018-03-20T08:50:48.237Z,81.29
2018-03-20T08:51:48.246Z,81.38
2018-03-20T08:52:48.258Z,80.34
2018-03-20T08:53:48.272Z,80.63
2018-03-20T08:54:48.278Z,80.25
2018-03-20T08:55:48.288Z,80.91
2018-03-20T08:57:48.311Z,80.34
2018-03-20T08:58:48.321Z,80.25
2018-03-20T08:59:48.336Z,79.58
2018-03-20T09:00:48.354Z,79.34
2018-03-20T09:02:48.364Z,80.48
2018-03-20T09:03:48.374Z,80.00
2018-03-20T09:04:48.383Z,79.91
2018-03-20T09:05:48.397Z,80.10
2018-03-20T09:06:48.408Z,79.53
2018-03-20T09:07:48.415Z,77.45
2018-03-20T09:08:48.432Z,77.64
2018-03-20T09:09:48.441Z,77.64
2018-03-20T09:10:48.450Z,78.20
2018-03-20T09:11:48.460Z,77.83
2018-03-20T09:12:48.476Z,77.64
2018-03-20T09:13:48.648Z,77.06
2018-03-20T09:14:48.496Z,77.16
2018-03-20T09:15:48.517Z,77.06
2018-03-20T09:16:48.513Z,76.87
2018-03-20T09:17:48.528Z,76.12
2018-03-20T09:19:48.546Z,75.36
2018-03-20T09:20:48.558Z,74.88
2018-03-20T09:21:48.567Z,74.60
2018-03-20T09:22:48.591Z,74.51
2018-03-20T09:23:48.591Z,74.69
2018-03-20T09:24:48.606Z,74.51
2018-03-20T09:25:48.619Z,74.13
2018-03-20T09:26:48.624Z,74.41
2018-03-20T09:27:48.633Z,74.79
2018-03-20T09:28:48.648Z,74.79
2018-03-20T09:29:48.693Z,74.22
2018-03-20T09:30:48.669Z,74.32
2018-03-20T09:31:48.681Z,74.16
2018-03-20T09:32:48.693Z,74.73
2018-03-20T09:33:48.702Z,73.50
2018-03-20T09:34:48.811Z,72.64
2018-03-20T09:35:48.723Z,72.27
2018-03-20T09:36:48.735Z,71.80
2018-03-20T09:37:48.743Z,72.17
2018-03-20T09:38:48.756Z,71.89
2018-03-20T09:39:48.764Z,70.28
2018-03-20T09:40:48.776Z,68.57
2018-03-20T09:41:48.784Z,67.81
2018-03-20T09:42:48.797Z,67.90
2018-03-20T09:43:48.846Z,67.81
2018-03-20T09:44:48.827Z,67.14
2018-03-20T09:45:48.829Z,67.05
2018-03-20T09:46:48.842Z,67.43
2018-03-20T09:47:48.850Z,67.71
2018-03-20T09:48:48.861Z,67.71
2018-03-20T09:49:48.874Z,67.14
2018-03-20T09:50:48.884Z,67.33
2018-03-20T09:51:48.900Z,66.67
2018-03-20T09:52:48.906Z,65.53
2018-03-20T09:53:48.918Z,64.59
2018-03-20T09:54:48.929Z,64.97
2018-03-20T09:55:48.941Z,64.59
2018-03-20T09:56:48.955Z,64.90
2018-03-20T09:57:48.967Z,65.00
2018-03-20T09:58:48.987Z,64.11
2018-03-20T09:59:48.986Z,63.67
2018-03-20T10:00:49.012Z,62.24
2018-03-20T10:01:49.009Z,61.49
2018-03-20T10:02:49.020Z,61.68
2018-03-20T10:03:49.031Z,61.39
2018-03-20T10:04:49.041Z,61.20
2018-03-20T10:05:49.054Z,60.63
2018-03-20T10:06:49.065Z,59.78
2018-03-20T10:07:49.089Z,60.35
2018-03-20T10:08:49.087Z,60.95
2018-03-20T10:09:49.099Z,60.73
2018-03-20T10:10:49.111Z,60.57
2018-03-20T10:11:49.122Z,59.91
2018-03-20T10:12:49.134Z,59.24
2018-03-20T10:13:49.145Z,59.14
2018-03-20T10:14:49.162Z,59.33
2018-03-20T10:15:49.178Z,59.62
2018-03-20T10:16:49.182Z,59.24
2018-03-20T10:17:49.194Z,58.67
2018-03-20T10:18:49.206Z,59.05
2018-03-20T10:19:49.219Z,58.48
2018-03-20T10:20:49.228Z,58.39
2018-03-20T10:21:49.240Z,58.29
2018-03-20T10:22:49.255Z,57.53
2018-03-20T10:23:49.262Z,56.68
2018-03-20T10:24:49.275Z,55.25
2018-03-20T10:25:49.285Z,54.21
2018-03-20T10:26:49.298Z,54.39
2018-03-20T10:27:49.311Z,54.21
2018-03-20T10:28:49.321Z,53.92
2018-03-20T10:29:49.332Z,53.83
2018-03-20T10:30:49.360Z,53.92
2018-03-20T10:31:49.363Z,54.11
2018-03-20T10:32:49.381Z,55.06
2018-03-20T10:33:49.381Z,54.49
2018-03-20T10:34:49.393Z,54.78
2018-03-20T10:35:49.404Z,54.87
2018-03-20T10:36:49.417Z,54.33
2018-03-20T10:37:49.427Z,53.38
2018-03-20T10:38:49.441Z,52.87
2018-03-20T10:39:49.465Z,51.93
2018-03-20T10:40:49.476Z,52.02
2018-03-20T10:41:49.478Z,51.55
2018-03-20T10:42:49.489Z,50.60
2018-03-20T10:43:49.507Z,50.62
2018-03-20T10:44:49.511Z,50.53
2018-03-20T10:45:49.921Z,49.96
2018-03-20T10:46:49.538Z,50.05
2018-03-20T10:47:49.649Z,49.01
2018-03-20T10:48:50.769Z,49.20
2018-03-20T10:49:49.582Z,49.10
2018-03-20T10:51:49.593Z,49.29
2018-03-20T10:52:49.605Z,48.44
2018-03-20T10:53:49.618Z,48.63
2018-03-20T10:54:49.630Z,48.44
2018-03-20T10:55:49.642Z,47.68
2018-03-20T10:56:49.654Z,47.30
2018-03-20T10:57:49.667Z,47.30
2018-03-20T10:58:49.678Z,46.92
2018-03-20T10:59:49.691Z,47.49
2018-03-20T11:00:49.704Z,47.20
2018-03-20T11:01:49.715Z,47.30
2018-03-20T11:02:49.725Z,47.20
2018-03-20T11:03:49.745Z,46.73
2018-03-20T11:04:49.750Z,47.49
2018-03-20T11:05:49.762Z,47.52
2018-03-20T11:06:49.778Z,47.42
2018-03-20T11:07:49.786Z,47.04
2018-03-20T11:08:49.800Z,46.19
2018-03-20T11:09:49.811Z,45.23
2018-03-20T11:10:49.823Z,45.14
2018-03-20T11:11:49.836Z,44.47
2018-03-20T11:12:49.847Z,44.47
2018-03-20T11:13:49.860Z,44.28
2018-03-20T11:14:49.873Z,43.80
2018-03-20T11:15:49.898Z,44.00
2018-03-20T11:16:49.899Z,43.05
2018-03-20T11:17:49.909Z,42.29
2018-03-20T11:18:49.922Z,42.19
2018-03-20T11:19:49.934Z,41.81
2018-03-20T11:20:49.946Z,41.81
2018-03-20T11:21:49.958Z,42.47
2018-03-20T11:22:49.971Z,43.05
2018-03-20T11:23:49.987Z,44.09
2018-03-20T11:24:49.996Z,43.33
2018-03-20T11:25:50.011Z,43.71
2018-03-20T11:26:50.022Z,43.62
2018-03-20T11:27:50.034Z,43.80
2018-03-20T11:28:50.047Z,43.71
2018-03-20T11:29:50.059Z,43.83
2018-03-20T11:30:50.076Z,43.16
2018-03-20T11:31:50.082Z,43.43
2018-03-20T11:32:50.096Z,43.26
2018-03-20T11:33:50.107Z,42.60
2018-03-20T11:34:50.121Z,42.02
2018-03-20T11:35:50.133Z,41.14
2018-03-20T11:36:50.143Z,40.86
2018-03-20T11:37:50.158Z,40.39
2018-03-20T11:38:50.172Z,40.67
2018-03-20T11:39:50.184Z,40.29
2018-03-20T11:40:50.218Z,41.17
2018-03-20T11:41:50.209Z,40.86
2018-03-20T11:42:50.222Z,41.07
2018-03-20T11:43:50.238Z,41.07
2018-03-20T11:44:50.246Z,41.36
2018-03-20T11:45:50.266Z,40.22
2018-03-20T11:46:50.273Z,39.93
2018-03-20T11:47:50.285Z,39.45
2018-03-20T11:48:50.298Z,39.07
2018-03-20T11:49:50.316Z,38.12
2018-03-20T11:50:50.322Z,38.58
2018-03-20T11:51:50.337Z,39.17
2018-03-20T11:52:50.349Z,39.65
2018-03-20T11:53:50.363Z,39.93
2018-03-20T11:54:50.383Z,39.65
2018-03-20T11:55:50.388Z,38.98
2018-03-20T11:56:50.404Z,38.51
2018-03-20T11:57:50.413Z,37.74
2018-03-20T11:58:50.427Z,37.65
2018-03-20T11:59:50.440Z,37.65
2018-03-20T12:00:50.490Z,37.37
2018-03-20T12:01:50.464Z,37.46
2018-03-20T12:02:50.477Z,36.60
2018-03-20T12:03:50.491Z,36.41
2018-03-20T12:04:50.537Z,36.79
2018-03-20T12:05:50.516Z,36.60
2018-03-20T12:06:50.529Z,37.18
2018-03-20T12:07:50.542Z,36.60
2018-03-20T12:08:50.564Z,37.27
2018-03-20T12:09:50.578Z,36.60
2018-03-20T12:10:50.580Z,36.79
2018-03-20T12:11:50.593Z,36.60
2018-03-20T12:12:50.607Z,36.60
2018-03-20T12:13:50.619Z,36.70
2018-03-20T12:14:50.632Z,36.89
2018-03-20T12:15:50.646Z,37.27
2018-03-20T12:16:50.668Z,36.41
2018-03-20T12:17:50.669Z,36.32
2018-03-20T12:18:50.682Z,36.72
2018-03-20T12:19:50.728Z,36.32
2018-03-20T12:20:50.707Z,36.32
2018-03-20T12:21:50.723Z,36.32
2018-03-20T12:22:50.740Z,36.72
2018-03-20T12:23:50.747Z,37.67
2018-03-20T12:24:50.763Z,37.29
2018-03-20T12:25:50.774Z,37.67
2018-03-20T12:26:50.786Z,37.38
2018-03-20T12:27:50.798Z,37.00
2018-03-20T12:28:50.812Z,35.86
2018-03-20T12:29:50.827Z,35.29
2018-03-20T12:30:50.838Z,35.38
2018-03-20T12:31:50.892Z,35.00
2018-03-20T12:32:50.865Z,35.10
2018-03-20T12:33:50.878Z,35.38
2018-03-20T12:34:50.891Z,34.91
2018-03-20T12:35:50.903Z,35.29
2018-03-20T12:36:50.919Z,34.81
2018-03-20T12:37:50.932Z,34.53
2018-03-20T12:38:50.942Z,35.10
2018-03-20T12:39:50.958Z,35.38
2018-03-20T12:40:50.975Z,35.96
2018-03-20T12:41:50.985Z,35.96
2018-03-20T12:42:50.998Z,36.43
2018-03-20T12:43:51.010Z,36.62
2018-03-20T12:44:51.025Z,36.72
2018-03-20T12:45:51.035Z,36.62
2018-03-20T12:46:51.050Z,37.19
2018-03-20T12:47:51.062Z,37.57
2018-03-20T12:48:51.074Z,38.17
2018-03-20T12:49:51.088Z,37.88
2018-03-20T12:50:51.106Z,37.67
2018-03-20T12:51:51.115Z,38.05
2018-03-20T12:52:51.127Z,38.05
2018-03-20T12:53:51.141Z,37.38
2018-03-20T12:54:51.156Z,37.57
2018-03-20T12:55:51.167Z,37.76
2018-03-20T12:56:51.184Z,38.24